Terminal Aerodrome Forecast
Issued by NWS St Louis, MO

Home | Current Version | Previous Version | Text Only | Print | Product List | Glossary On
Versions: 1 2 3 4 5 6 7 8 9 10 11 12 13 14 15 16 17 18 19 20 21 22 23 24 25 26 27 28 29 30 31 32 33
000
FTUS43 KLSX 280127 AAA
TAFSTL
TAF AMD
KSTL 280127Z 2801/2906 18008KT P6SM SCT015 OVC050
     FM280300 18007KT P6SM VCSH BKN030
     FM280600 18008KT P6SM OVC025
     FM281200 18009KT P6SM OVC020
     FM281500 18013KT P6SM BKN060=

USA.gov is the U.S. government's official web portal to all federal, state and local government web resources and services.